Time;durP1;ratioP1;P1;durP2;ratioP2;P2;SDS_P1;SDS_P2;PMS_P1;PMS_P2;Temp;Humidity;BMP_temperature;BMP_pressure;BME280_temperature;BME280_humidity;BME280_pressure;Samples;Min_cycle;Max_cycle;Signal;HPM_P1;HPM_P2
2022/03/11 00:00:28;;;;;;;11.90;6.23;;;;;;;-2.43;56.82;102334.09;5051964;28;20461;-72
2022/03/11 00:02:54;;;;;;;11.30;6.13;;;;;;;-2.47;56.00;102339.03;5071119;28;20459;-72
2022/03/11 00:05:22;;;;;;;12.47;6.33;;;;;;;-2.43;56.17;102341.75;5067698;28;20471;-72
2022/03/11 00:07:48;;;;;;;13.17;5.90;;;;;;;-2.43;56.18;102341.75;5063786;28;20507;-72
2022/03/11 00:10:15;;;;;;;11.83;6.30;;;;;;;-2.51;56.80;102339.66;5069169;28;20451;-72
2022/03/11 00:12:42;;;;;;;13.70;6.80;;;;;;;-2.54;56.31;102339.50;5059378;28;20939;-72
2022/03/11 00:15:09;;;;;;;13.83;6.37;;;;;;;-2.58;57.06;102345.22;5068308;28;20449;-72
2022/03/11 00:17:36;;;;;;;14.47;6.47;;;;;;;-2.61;56.46;102337.41;5067571;28;20467;-72
2022/03/11 00:20:03;;;;;;;11.60;6.37;;;;;;;-2.60;56.79;102339.16;5067367;28;20448;-72
2022/03/11 00:22:31;;;;;;;13.80;6.50;;;;;;;-2.63;56.60;102341.53;5071868;28;20451;-71
2022/03/11 00:24:57;;;;;;;12.73;5.93;;;;;;;-2.69;57.72;102343.75;5065681;28;20471;-72
2022/03/11 00:27:24;;;;;;;14.00;6.47;;;;;;;-2.73;57.05;102347.81;5067079;28;20491;-71
2022/03/11 00:29:50;;;;;;;11.80;6.43;;;;;;;-2.75;57.60;102340.88;5049037;28;20480;-72
2022/03/11 00:32:17;;;;;;;12.73;6.93;;;;;;;-2.78;57.58;102348.34;5066532;28;20471;-72
2022/03/11 00:34:43;;;;;;;12.10;6.20;;;;;;;-2.83;57.24;102343.00;5073395;28;20490;-71
2022/03/11 00:37:12;;;;;;;13.33;6.33;;;;;;;-2.87;57.86;102341.97;5066164;28;20469;-71
2022/03/11 00:39:40;;;;;;;10.97;6.40;;;;;;;-2.92;58.35;102334.81;5067015;28;20439;-72
2022/03/11 00:42:06;;;;;;;12.40;6.70;;;;;;;-2.96;58.23;102332.88;5068122;28;20447;-72
2022/03/11 00:44:35;;;;;;;12.47;6.20;;;;;;;-2.99;58.68;102333.59;5069005;28;20467;-72
2022/03/11 00:47:01;;;;;;;12.37;7.07;;;;;;;-3.01;58.29;102331.75;5067011;28;20548;-72
2022/03/11 00:49:27;;;;;;;16.20;6.67;;;;;;;-3.02;58.61;102327.44;5068749;28;20480;-72
2022/03/11 00:51:54;;;;;;;11.37;6.20;;;;;;;-3.05;58.87;102335.78;5066500;28;20821;-72
2022/03/11 00:54:20;;;;;;;15.50;6.63;;;;;;;-3.10;59.16;102327.88;5049356;28;20451;-72
2022/03/11 00:56:48;;;;;;;12.33;6.03;;;;;;;-3.19;60.13;102324.78;5066264;28;20455;-71
2022/03/11 00:59:16;;;;;;;14.83;6.57;;;;;;;-3.22;58.84;102324.63;5066806;28;21136;-72
2022/03/11 01:01:43;;;;;;;11.40;5.90;;;;;;;-3.28;60.28;102321.72;5068823;28;20466;-71
2022/03/11 01:04:10;;;;;;;13.30;6.80;;;;;;;-3.27;60.80;102314.16;5048893;28;20886;-72
2022/03/11 01:06:36;;;;;;;11.73;6.63;;;;;;;-3.31;59.73;102317.31;5065756;28;20455;-71
2022/03/11 01:09:04;;;;;;;13.93;6.73;;;;;;;-3.36;60.39;102325.50;5059427;28;20535;-71
2022/03/11 01:11:31;;;;;;;13.03;6.57;;;;;;;-3.38;60.60;102316.88;5066743;28;20983;-71
2022/03/11 01:13:58;;;;;;;13.20;6.80;;;;;;;-3.35;60.11;102323.03;5064674;28;21050;-72
2022/03/11 01:16:25;;;;;;;15.60;7.37;;;;;;;-3.39;60.61;102310.00;5071215;28;20450;-71
2022/03/11 01:18:52;;;;;;;12.37;6.57;;;;;;;-3.43;61.36;102299.66;5066419;28;20472;-72
2022/03/11 01:21:18;;;;;;;12.30;6.90;;;;;;;-3.40;61.71;102304.03;5066435;28;20952;-72
2022/03/11 01:23:44;;;;;;;11.40;6.57;;;;;;;-3.43;60.37;102301.31;5066568;28;20454;-71
2022/03/11 01:26:12;;;;;;;14.73;6.73;;;;;;;-3.39;60.17;102303.25;5065892;28;20458;-71
2022/03/11 01:28:41;;;;;;;12.83;6.70;;;;;;;-3.40;60.78;102298.94;5065854;28;20474;-71
2022/03/11 01:31:11;;;;;;;14.93;7.00;;;;;;;-3.44;60.77;102295.34;5066840;28;20526;-71
2022/03/11 01:33:38;;;;;;;13.43;7.17;;;;;;;-3.45;61.42;102303.78;5066204;28;20445;-71
2022/03/11 01:36:04;;;;;;;14.97;7.50;;;;;;;-3.48;61.54;102289.97;5066363;28;20465;-71
2022/03/11 01:38:31;;;;;;;13.27;7.10;;;;;;;-3.47;60.50;102284.06;5066545;28;20477;-74
2022/03/11 01:40:57;;;;;;;15.37;6.73;;;;;;;-3.47;60.99;102290.03;5066594;28;20457;-74
2022/03/11 01:43:25;;;;;;;14.93;7.10;;;;;;;-3.48;60.97;102282.34;5063454;28;21001;-74
2022/03/11 01:45:51;;;;;;;11.77;7.00;;;;;;;-3.54;61.60;102285.38;5065345;28;20539;-74
2022/03/11 01:48:19;;;;;;;14.47;7.10;;;;;;;-3.57;63.20;102276.69;5065770;28;21071;-74
2022/03/11 01:50:46;;;;;;;15.53;6.53;;;;;;;-3.62;61.83;102282.41;5070007;28;20454;-74
2022/03/11 01:53:14;;;;;;;13.87;6.93;;;;;;;-3.65;62.08;102274.56;5070289;28;20446;-74
2022/03/11 01:55:42;;;;;;;13.57;7.50;;;;;;;-3.62;62.27;102284.94;5060091;28;20455;-74
2022/03/11 01:58:09;;;;;;;13.50;7.10;;;;;;;-3.63;61.76;102283.19;5070400;28;20994;-74
2022/03/11 02:00:38;;;;;;;10.93;7.00;;;;;;;-3.60;61.19;102279.06;5070067;28;20517;-74
2022/03/11 02:03:04;;;;;;;16.50;7.00;;;;;;;-3.66;61.42;102275.38;5051632;28;20457;-74
2022/03/11 02:05:32;;;;;;;14.30;7.13;;;;;;;-3.75;62.56;102274.81;5071204;28;20951;-74
2022/03/11 02:07:59;;;;;;;17.70;7.80;;;;;;;-3.74;62.10;102278.25;5080201;28;20473;-74
2022/03/11 02:10:26;;;;;;;14.00;7.60;;;;;;;-3.78;62.46;102272.09;5071572;28;20484;-74
2022/03/11 02:12:53;;;;;;;13.87;7.27;;;;;;;-3.80;62.07;102278.75;5070463;28;20446;-74
2022/03/11 02:15:19;;;;;;;15.23;7.50;;;;;;;-3.75;63.14;102272.25;5052254;28;20488;-74
2022/03/11 02:17:45;;;;;;;12.30;6.97;;;;;;;-3.73;62.02;102274.91;5058157;28;21003;-74
2022/03/11 02:20:12;;;;;;;13.23;7.20;;;;;;;-3.75;61.66;102272.25;5052498;28;20461;-74
2022/03/11 02:22:41;;;;;;;14.10;7.27;;;;;;;-3.82;62.90;102272.69;5069300;28;20495;-74
2022/03/11 02:25:10;;;;;;;14.00;7.70;;;;;;;-3.84;62.65;102274.28;5073035;28;20454;-74
2022/03/11 02:27:38;;;;;;;14.67;7.07;;;;;;;-3.85;62.71;102273.41;5070220;28;20486;-74
2022/03/11 02:30:13;;;;;;;12.67;7.03;;;;;;;-3.81;62.62;102266.81;5051741;28;20473;-74
2022/03/11 02:32:39;;;;;;;14.33;8.10;;;;;;;-3.82;62.52;102272.69;5051308;28;21219;-74
2022/03/11 02:35:06;;;;;;;18.23;8.10;;;;;;;-3.80;62.05;102273.66;5070084;28;20449;-74
2022/03/11 02:37:32;;;;;;;17.23;8.07;;;;;;;-3.84;62.78;102279.38;5049172;28;21252;-74
2022/03/11 02:39:59;;;;;;;22.07;8.10;;;;;;;-3.87;64.38;102266.44;5062604;28;20454;-74
2022/03/11 02:42:27;;;;;;;13.37;7.63;;;;;;;-3.92;63.80;102266.19;5066642;28;20457;-74
2022/03/11 02:44:53;;;;;;;14.60;7.57;;;;;;;-3.93;64.53;102264.41;5068188;28;20452;-74
2022/03/11 02:47:20;;;;;;;15.23;7.87;;;;;;;-3.96;63.58;102264.22;5069589;28;20479;-74
2022/03/11 02:49:46;;;;;;;16.03;8.37;;;;;;;-3.94;63.38;102265.22;5069493;28;20840;-74
2022/03/11 02:52:13;;;;;;;13.93;7.47;;;;;;;-3.94;63.73;102259.22;5069745;28;20453;-74
2022/03/11 02:54:39;;;;;;;17.77;8.20;;;;;;;-4.00;63.32;102259.75;5067727;28;20540;-74
2022/03/11 02:57:05;;;;;;;15.40;8.20;;;;;;;-4.02;63.56;102253.69;5070423;28;20908;-74
2022/03/11 02:59:33;;;;;;;16.93;8.37;;;;;;;-4.01;64.03;102260.53;5069046;28;20462;-74
2022/03/11 03:02:01;;;;;;;15.07;7.50;;;;;;;-4.03;64.15;102250.28;5046750;28;21111;-74
2022/03/11 03:04:27;;;;;;;14.90;7.10;;;;;;;-4.06;66.71;102251.75;5069421;28;20986;-74
2022/03/11 03:06:54;;;;;;;15.33;8.03;;;;;;;-4.10;64.60;102254.91;5070010;28;20468;-74
2022/03/11 03:09:21;;;;;;;14.37;7.77;;;;;;;-4.04;64.60;102251.06;5067073;28;20981;-74
2022/03/11 03:11:47;;;;;;;14.57;8.13;;;;;;;-4.07;64.29;102263.59;5068636;28;20458;-74
2022/03/11 03:14:13;;;;;;;16.03;8.47;;;;;;;-4.11;64.21;102254.03;5069658;28;20454;-74
2022/03/11 03:16:41;;;;;;;18.97;8.90;;;;;;;-4.13;65.07;102253.06;5069083;28;20928;-74
2022/03/11 03:19:07;;;;;;;15.97;8.37;;;;;;;-4.14;65.33;102250.41;5072601;28;20796;-74
2022/03/11 03:21:34;;;;;;;18.03;7.80;;;;;;;-4.20;65.49;102249.25;5070519;28;20438;-74
2022/03/11 03:24:00;;;;;;;18.13;8.07;;;;;;;-4.18;64.57;102251.91;5072265;28;20484;-74
2022/03/11 03:26:27;;;;;;;16.90;8.73;;;;;;;-4.12;64.69;102254.78;5070769;28;20484;-74
2022/03/11 03:28:53;;;;;;;15.50;8.03;;;;;;;-4.16;64.38;102257.97;5068065;28;20493;-74
2022/03/11 03:31:22;;;;;;;18.57;8.73;;;;;;;-4.13;64.46;102257.25;5070874;28;20456;-74
2022/03/11 03:33:50;;;;;;;16.27;8.07;;;;;;;-4.16;64.60;102252.88;5069127;28;20457;-74
2022/03/11 03:36:17;;;;;;;20.50;8.40;;;;;;;-4.16;64.29;102259.63;5069092;28;20460;-74
2022/03/11 03:38:43;;;;;;;17.20;8.67;;;;;;;-4.22;64.40;102255.94;5051216;28;20477;-74
2022/03/11 03:41:10;;;;;;;16.67;8.03;;;;;;;-4.19;64.32;102256.13;5069557;28;20453;-74
2022/03/11 03:43:37;;;;;;;18.63;8.47;;;;;;;-4.21;63.68;102256.81;5069235;28;20452;-73
2022/03/11 03:46:06;;;;;;;17.57;8.37;;;;;;;-4.21;64.64;102254.25;5067548;28;21008;-74
2022/03/11 03:48:33;;;;;;;16.30;8.20;;;;;;;-4.22;64.63;102255.94;5050345;28;20921;-74
2022/03/11 03:51:00;;;;;;;14.70;8.23;;;;;;;-4.23;64.10;102260.94;5069209;28;21006;-74
2022/03/11 03:53:27;;;;;;;18.50;8.40;;;;;;;-4.27;64.24;102254.78;5068292;28;20933;-74
2022/03/11 03:55:53;;;;;;;16.53;8.77;;;;;;;-4.28;64.37;102268.28;5069542;28;21245;-74
2022/03/11 03:58:19;;;;;;;17.10;7.83;;;;;;;-4.25;64.17;102268.47;5069526;28;20824;-74
2022/03/11 04:00:46;;;;;;;16.37;8.53;;;;;;;-4.25;63.95;102268.47;5068358;28;20976;-74
2022/03/11 04:03:12;;;;;;;13.10;7.77;;;;;;;-4.24;65.24;102264.25;5074042;28;20462;-74
2022/03/11 04:05:38;;;;;;;17.77;8.40;;;;;;;-4.29;65.70;102258.00;5050261;28;20527;-74
2022/03/11 04:08:06;;;;;;;17.03;8.13;;;;;;;-4.32;64.79;102265.47;5065197;28;20555;-74
2022/03/11 04:10:33;;;;;;;14.63;8.23;;;;;;;-4.42;65.39;102262.34;5050911;28;20468;-74
2022/03/11 04:12:59;;;;;;;22.77;9.60;;;;;;;-4.40;65.55;102250.63;5050519;28;20469;-73
2022/03/11 04:15:25;;;;;;;14.97;8.33;;;;;;;-4.39;64.66;102252.34;5068936;28;20465;-74
2022/03/11 04:17:52;;;;;;;18.60;8.17;;;;;;;-4.46;66.57;102250.22;5052389;28;20483;-74
2022/03/11 04:20:18;;;;;;;18.27;9.00;;;;;;;-4.45;65.80;102240.91;5067654;28;20878;-73
2022/03/11 04:22:45;;;;;;;19.77;9.07;;;;;;;-4.51;65.18;102241.44;5069111;28;20457;-74
2022/03/11 04:25:15;;;;;;;19.43;9.40;;;;;;;-4.52;65.79;102238.78;5067634;28;20453;-73
2022/03/11 04:27:42;;;;;;;19.20;9.17;;;;;;;-4.57;66.39;102233.44;5066513;28;20472;-74
2022/03/11 04:30:09;;;;;;;17.17;8.67;;;;;;;-4.59;65.82;102237.53;5066066;28;20473;-74
2022/03/11 04:32:35;;;;;;;16.47;8.00;;;;;;;-4.55;65.89;102238.63;5068243;28;20827;-74
2022/03/11 04:35:03;;;;;;;19.07;9.63;;;;;;;-4.54;65.64;102238.69;5068058;28;20452;-71
2022/03/11 04:37:29;;;;;;;14.90;7.87;;;;;;;-4.57;65.35;102234.28;5067511;28;20471;-72
2022/03/11 04:39:57;;;;;;;19.63;9.03;;;;;;;-4.60;65.47;102234.09;5062886;28;20480;-71
2022/03/11 04:42:25;;;;;;;18.67;8.90;;;;;;;-4.61;66.62;102228.91;5068262;28;21040;-71
2022/03/11 04:44:51;;;;;;;16.60;8.57;;;;;;;-4.58;65.50;102234.19;5066373;28;20465;-71
2022/03/11 04:47:18;;;;;;;20.50;9.47;;;;;;;-4.58;65.55;102235.06;5064214;28;20472;-74
2022/03/11 04:49:44;;;;;;;19.50;8.93;;;;;;;-4.57;66.07;102229.22;5068303;28;20471;-74
2022/03/11 04:52:11;;;;;;;15.10;8.73;;;;;;;-4.57;65.39;102235.97;5066267;28;20457;-73
2022/03/11 04:54:37;;;;;;;20.03;9.30;;;;;;;-4.63;66.44;102231.38;5065507;28;20457;-74
2022/03/11 04:57:04;;;;;;;17.23;8.60;;;;;;;-4.69;65.73;102237.78;5070806;28;20481;-74
2022/03/11 04:59:33;;;;;;;18.23;8.80;;;;;;;-4.69;65.66;102242.84;5065132;28;20450;-74
2022/03/11 05:02:00;;;;;;;21.13;9.40;;;;;;;-4.68;65.83;102253.09;5067505;28;20456;-74
2022/03/11 05:04:26;;;;;;;15.30;8.20;;;;;;;-4.64;65.20;102246.56;5065059;28;20978;-74
2022/03/11 05:06:53;;;;;;;15.47;8.43;;;;;;;-4.60;64.74;102243.41;5063927;28;20930;-73
2022/03/11 05:09:19;;;;;;;18.33;9.33;;;;;;;-4.67;65.13;102246.38;5071411;28;21125;-74
2022/03/11 05:11:45;;;;;;;16.83;8.63;;;;;;;-4.70;65.89;102254.69;5063819;28;20862;-74
2022/03/11 05:14:12;;;;;;;18.77;8.20;;;;;;;-4.76;66.07;102245.00;5058742;28;20524;-74
2022/03/11 05:16:40;;;;;;;18.40;8.27;;;;;;;-4.77;65.68;102247.44;5060027;28;20456;-74
2022/03/11 05:19:06;;;;;;;18.30;8.63;;;;;;;-4.81;66.09;102253.16;5057901;28;20468;-74
2022/03/11 05:21:33;;;;;;;20.20;8.57;;;;;;;-4.80;65.85;102250.69;5060101;28;20456;-74
2022/03/11 05:23:59;;;;;;;14.83;8.23;;;;;;;-4.79;65.50;102252.44;5040832;28;20456;-74
2022/03/11 05:26:25;;;;;;;17.40;9.13;;;;;;;-4.80;66.89;102248.16;5058280;28;20457;-74
2022/03/11 05:28:53;;;;;;;15.43;8.03;;;;;;;-4.84;66.44;102248.72;5041237;28;20518;-74
2022/03/11 05:31:19;;;;;;;19.57;8.80;;;;;;;-4.84;65.82;102258.03;5060221;28;20495;-74
2022/03/11 05:33:47;;;;;;;19.07;8.43;;;;;;;-4.86;66.01;102255.38;5058080;28;20965;-74
2022/03/11 05:36:14;;;;;;;17.07;8.10;;;;;;;-4.85;67.26;102251.22;5057868;28;20456;-73
2022/03/11 05:38:40;;;;;;;16.97;8.30;;;;;;;-4.84;66.06;102256.38;5059329;28;20473;-73
2022/03/11 05:41:06;;;;;;;15.87;8.70;;;;;;;-4.84;66.70;102258.03;5057679;28;20450;-74
2022/03/11 05:43:33;;;;;;;16.93;8.20;;;;;;;-4.86;65.91;102259.63;5059429;28;20469;-74
2022/03/11 05:45:59;;;;;;;17.97;8.90;;;;;;;-4.91;66.18;102245.72;5059442;28;20475;-73
2022/03/11 05:48:25;;;;;;;15.60;8.43;;;;;;;-4.92;66.52;102256.66;5059313;28;20473;-74
2022/03/11 05:50:53;;;;;;;19.07;9.30;;;;;;;-4.89;67.38;102255.22;5059249;28;21049;-74
2022/03/11 05:53:20;;;;;;;16.33;8.67;;;;;;;-4.85;66.19;102251.22;5059500;28;21219;-74
2022/03/11 05:55:47;;;;;;;19.93;8.87;;;;;;;-4.83;65.91;102267.44;5059849;28;20468;-74
2022/03/11 05:58:13;;;;;;;14.80;8.17;;;;;;;-4.80;66.28;102263.44;5057461;28;20472;-74
2022/03/11 06:00:40;;;;;;;14.40;7.73;;;;;;;-4.78;66.33;102264.41;5059359;28;20461;-74
2022/03/11 06:03:07;;;;;;;17.77;8.77;;;;;;;-4.80;65.61;102263.44;5058481;28;20479;-73
2022/03/11 06:05:34;;;;;;;14.37;8.33;;;;;;;-4.78;67.03;102261.84;5062644;28;20850;-74
2022/03/11 06:08:01;;;;;;;17.83;9.20;;;;;;;-4.73;65.36;102268.88;5044754;28;20492;-74
2022/03/11 06:10:29;;;;;;;17.97;8.60;;;;;;;-4.65;64.79;102273.66;5047584;28;20506;-74
2022/03/11 06:12:55;;;;;;;16.80;8.80;;;;;;;-4.66;65.18;102273.56;5068885;28;20464;-74
2022/03/11 06:15:22;;;;;;;20.83;9.23;;;;;;;-4.68;65.35;102268.38;5068314;28;21283;-74
2022/03/11 06:17:48;;;;;;;17.47;8.10;;;;;;;-4.67;65.66;102280.34;5067501;28;20823;-74
2022/03/11 06:20:15;;;;;;;17.07;8.90;;;;;;;-4.62;65.15;102283.19;5064637;28;20467;-73
2022/03/11 06:22:49;;;;;;;16.33;9.03;;;;;;;-4.59;64.89;102288.44;5063825;28;20441;-74
2022/03/11 06:25:17;;;;;;;16.33;8.40;;;;;;;-4.58;65.26;102280.91;5064241;28;20552;-74
2022/03/11 06:27:44;;;;;;;17.57;8.87;;;;;;;-4.54;66.51;102291.28;5062669;28;21075;-73
2022/03/11 06:30:11;;;;;;;17.30;8.77;;;;;;;-4.56;65.60;102288.63;5066912;28;21085;-74
2022/03/11 06:32:43;;;;;;;16.97;9.07;;;;;;;-4.48;64.35;102297.63;5061806;28;20457;-74
2022/03/11 06:35:11;;;;;;;17.90;8.93;;;;;;;-4.44;64.71;102291.06;5056646;28;20458;-74
2022/03/11 06:37:37;;;;;;;19.67;8.70;;;;;;;-4.44;64.64;102294.47;5067829;28;20476;-74
2022/03/11 06:40:05;;;;;;;19.73;9.37;;;;;;;-4.39;64.49;102303.28;5067491;28;20448;-74
2022/03/11 06:42:38;;;;;;;20.40;8.97;;;;;;;-4.35;64.24;102304.34;5068099;28;20456;-74
2022/03/11 06:45:06;;;;;;;15.87;8.73;;;;;;;-4.31;65.11;102305.44;5052434;28;20456;-74
2022/03/11 06:47:33;;;;;;;20.93;8.80;;;;;;;-4.23;63.53;102314.44;5075632;28;20525;-74
2022/03/11 06:49:59;;;;;;;13.23;7.30;;;;;;;-4.19;64.19;102322.38;5069120;28;20480;-74
2022/03/11 06:52:26;;;;;;;16.53;8.80;;;;;;;-4.09;64.08;102307.63;5066989;28;20456;-74
2022/03/11 06:54:52;;;;;;;19.70;8.63;;;;;;;-4.06;62.76;102315.47;5072472;28;20459;-74
2022/03/11 06:57:19;;;;;;;16.67;8.63;;;;;;;-3.97;63.49;102312.56;5063746;28;20479;-74
2022/03/11 06:59:47;;;;;;;16.30;9.60;;;;;;;-3.93;63.92;102311.97;5068038;28;20458;-74
2022/03/11 07:02:14;;;;;;;23.17;10.07;;;;;;;-3.88;63.35;102313.13;5068642;28;21188;-74
2022/03/11 07:04:40;;;;;;;19.67;8.90;;;;;;;-3.79;62.04;102311.13;5069792;28;20489;-74
2022/03/11 07:07:07;;;;;;;18.07;8.73;;;;;;;-3.73;62.69;102308.94;5067236;28;20473;-74
2022/03/11 07:09:33;;;;;;;18.60;9.37;;;;;;;-3.70;64.79;102309.09;5063511;28;20456;-74
2022/03/11 07:12:01;;;;;;;20.83;9.20;;;;;;;-3.67;62.40;102311.84;5065777;28;20460;-74
2022/03/11 07:14:27;;;;;;;18.13;8.80;;;;;;;-3.59;62.03;102309.72;5067475;28;20452;-74
2022/03/11 07:16:58;;;;;;;16.87;8.50;;;;;;;-3.47;61.34;102315.56;5051758;28;20465;-74
2022/03/11 07:19:24;;;;;;;16.67;9.10;;;;;;;-3.38;60.96;102312.66;5065050;28;20462;-74
2022/03/11 07:21:51;;;;;;;18.80;8.80;;;;;;;-3.34;60.46;102316.25;5067069;28;20454;-74
2022/03/11 07:24:17;;;;;;;19.23;9.50;;;;;;;-3.30;60.64;102320.75;5068320;28;20454;-74
2022/03/11 07:26:43;;;;;;;17.00;8.90;;;;;;;-3.25;61.43;102315.13;5064587;28;20466;-74
2022/03/11 07:29:10;;;;;;;17.27;9.37;;;;;;;-3.16;61.81;102322.44;5068878;28;20454;-74
2022/03/11 07:31:36;;;;;;;16.63;9.43;;;;;;;-3.10;60.24;102324.44;5082557;28;20467;-74
2022/03/11 07:34:04;;;;;;;18.97;8.90;;;;;;;-3.06;59.76;102322.16;5066237;28;20461;-73
2022/03/11 07:36:32;;;;;;;15.47;8.43;;;;;;;-2.95;59.23;102321.91;5062167;28;20463;-74
2022/03/11 07:38:58;;;;;;;17.17;8.77;;;;;;;-2.87;58.80;102318.06;5067382;28;20511;-74
2022/03/11 07:41:28;;;;;;;18.27;8.57;;;;;;;-2.80;58.12;102329.50;5074616;28;20446;-74
2022/03/11 07:43:55;;;;;;;17.37;9.00;;;;;;;-2.73;57.96;102321.41;5063547;28;20451;-71
2022/03/11 07:46:23;;;;;;;16.50;8.90;;;;;;;-2.67;57.37;102319.19;5063906;28;20587;-72
2022/03/11 07:48:49;;;;;;;16.27;8.67;;;;;;;-2.63;56.85;102308.34;5049505;28;20494;-72
2022/03/11 07:51:17;;;;;;;17.30;8.80;;;;;;;-2.54;56.30;102307.97;5069168;28;20473;-72
2022/03/11 07:53:44;;;;;;;20.80;9.27;;;;;;;-2.50;57.05;102309.88;5068327;28;20458;-71
2022/03/11 07:56:12;;;;;;;16.33;8.27;;;;;;;-2.41;57.35;102309.50;5068814;28;20459;-72
2022/03/11 07:58:39;;;;;;;19.73;8.87;;;;;;;-2.19;55.27;102317.53;5068030;28;20574;-72
2022/03/11 08:01:09;;;;;;;16.50;8.30;;;;;;;-2.11;54.99;102313.69;5063904;28;20454;-72
2022/03/11 08:03:36;;;;;;;17.70;9.20;;;;;;;-2.03;55.50;102313.22;5067058;28;20464;-71
2022/03/11 08:06:03;;;;;;;18.07;9.40;;;;;;;-1.87;54.22;102317.44;5066725;28;20471;-71
2022/03/11 08:08:31;;;;;;;19.83;8.93;;;;;;;-1.83;54.48;102316.81;5067242;28;20890;-71
2022/03/11 08:10:57;;;;;;;16.90;8.93;;;;;;;-1.77;53.89;102317.13;5067184;28;20467;-71
2022/03/11 08:13:24;;;;;;;16.20;8.80;;;;;;;-1.63;53.19;102315.28;5063903;28;20452;-72
2022/03/11 08:15:50;;;;;;;15.97;8.43;;;;;;;-1.61;53.66;102308.56;5060492;28;20680;-71
2022/03/11 08:18:17;;;;;;;19.23;9.27;;;;;;;-1.53;53.70;102310.69;5048657;28;20226;-72
2022/03/11 08:20:43;;;;;;;17.00;9.17;;;;;;;-1.44;52.79;102315.41;5070953;28;20198;-72
2022/03/11 08:23:10;;;;;;;15.67;8.57;;;;;;;-1.27;52.08;102323.03;5069504;28;20218;-72
2022/03/11 08:25:38;;;;;;;15.93;8.60;;;;;;;-1.26;51.83;102329.91;5069651;28;20209;-72
2022/03/11 08:28:07;;;;;;;20.37;9.53;;;;;;;-1.22;51.80;102319.88;5048792;28;20233;-72
2022/03/11 08:30:34;;;;;;;17.60;9.00;;;;;;;-1.17;52.71;102325.25;5067964;28;20214;-72
2022/03/11 08:33:02;;;;;;;19.13;8.70;;;;;;;-1.12;50.97;102328.03;5064014;28;20222;-72
2022/03/11 08:35:29;;;;;;;16.83;8.80;;;;;;;-0.99;51.86;102322.69;5068171;28;20218;-72
2022/03/11 08:37:55;;;;;;;17.27;8.97;;;;;;;-0.81;50.54;102338.97;5070271;28;20223;-71
2022/03/11 08:40:23;;;;;;;16.30;8.33;;;;;;;-0.73;49.48;102331.63;5053919;28;20202;-72
2022/03/11 08:42:52;;;;;;;15.03;8.40;;;;;;;-0.71;50.18;102332.56;5064331;28;20195;-72
2022/03/11 08:45:21;;;;;;;20.37;9.80;;;;;;;-0.61;50.25;102329.66;5066463;28;20189;-72
2022/03/11 08:47:47;;;;;;;18.10;9.33;;;;;;;-0.59;49.38;102339.97;5065463;28;20218;-72
2022/03/11 08:50:15;;;;;;;17.83;7.80;;;;;;;-0.49;48.60;102341.25;5065403;28;20198;-72
2022/03/11 08:52:41;;;;;;;14.90;8.07;;;;;;;-0.47;47.99;102340.53;5064731;28;20195;-72
2022/03/11 08:55:09;;;;;;;13.73;7.83;;;;;;;-0.38;49.11;102337.53;5066581;28;20669;-72
2022/03/11 08:57:37;;;;;;;14.43;8.07;;;;;;;-0.17;48.55;102339.31;5048475;28;20218;-72
2022/03/11 09:00:06;;;;;;;17.83;8.53;;;;;;;-0.11;47.58;102339.59;5062798;28;20214;-72
2022/03/11 09:02:37;;;;;;;14.50;8.20;;;;;;;-0.05;48.24;102339.88;5060562;28;20197;-72
2022/03/11 09:05:04;;;;;;;16.43;8.87;;;;;;;0.01;46.50;102340.13;5066337;28;20198;-72
2022/03/11 09:07:30;;;;;;;15.07;8.00;;;;;;;0.04;47.32;102334.28;5065930;28;20593;-72
2022/03/11 09:09:58;;;;;;;16.30;8.50;;;;;;;0.12;47.43;102330.34;5063507;28;20209;-72
2022/03/11 09:12:24;;;;;;;18.77;8.53;;;;;;;0.25;46.49;102326.66;5066319;28;20221;-72
2022/03/11 09:14:51;;;;;;;18.20;8.57;;;;;;;0.40;45.65;102328.97;5063465;28;20872;-72
2022/03/11 09:17:18;;;;;;;13.47;7.77;;;;;;;0.48;45.55;102328.50;5062364;28;20313;-72
2022/03/11 09:19:45;;;;;;;15.47;8.07;;;;;;;0.55;45.20;102332.22;5066149;28;20202;-72
2022/03/11 09:22:12;;;;;;;13.00;7.67;;;;;;;0.64;45.02;102329.16;5066275;28;20198;-72
2022/03/11 09:24:39;;;;;;;14.87;7.83;;;;;;;0.72;44.73;102331.22;5065608;28;20195;-72
2022/03/11 09:27:06;;;;;;;14.10;7.20;;;;;;;0.83;43.79;102341.94;5067704;28;20225;-72
2022/03/11 09:29:32;;;;;;;14.73;8.03;;;;;;;0.93;43.44;102345.75;5064909;28;20198;-72
2022/03/11 09:31:59;;;;;;;18.70;7.53;;;;;;;0.90;43.52;102338.81;5064880;28;20219;-72
2022/03/11 09:34:27;;;;;;;14.93;8.27;;;;;;;0.94;43.88;102340.69;5064683;28;20199;-72
2022/03/11 09:36:54;;;;;;;17.87;8.60;;;;;;;1.04;43.80;102338.47;5066221;28;20829;-72
2022/03/11 09:39:21;;;;;;;14.37;7.73;;;;;;;1.13;43.20;102342.31;5063188;28;20688;-72
2022/03/11 09:41:49;;;;;;;16.77;7.37;;;;;;;1.16;43.20;102336.41;5048039;28;20210;-72
2022/03/11 09:44:16;;;;;;;12.83;7.23;;;;;;;1.22;42.97;102336.66;5047347;28;20211;-72
2022/03/11 09:46:43;;;;;;;13.27;7.37;;;;;;;1.33;42.57;102339.63;5077600;28;20209;-72
2022/03/11 09:49:12;;;;;;;16.23;7.43;;;;;;;1.49;40.52;102341.13;5062889;28;20225;-72
2022/03/11 09:51:41;;;;;;;13.13;7.23;;;;;;;1.49;40.85;102338.53;5065207;28;20686;-72
2022/03/11 09:54:09;;;;;;;13.23;7.43;;;;;;;1.64;40.57;102346.84;5065323;28;20194;-72
2022/03/11 09:56:36;;;;;;;12.53;7.23;;;;;;;1.70;39.95;102328.19;5069610;28;20750;-72
2022/03/11 09:59:02;;;;;;;14.90;7.60;;;;;;;1.82;39.50;102330.34;5060884;28;20212;-72
2022/03/11 10:01:29;;;;;;;13.03;6.60;;;;;;;1.90;38.51;102336.69;5064321;28;20218;-72
2022/03/11 10:03:55;;;;;;;13.80;6.57;;;;;;;1.95;38.92;102337.69;5066564;28;20303;-72
2022/03/11 10:06:38;;;;;;;11.37;6.47;;;;;;;2.09;38.32;102338.19;5066204;28;20210;-72
2022/03/11 10:09:06;;;;;;;14.23;7.40;;;;;;;2.16;38.88;102332.44;5062350;28;20221;-72
2022/03/11 10:11:34;;;;;;;13.20;6.53;;;;;;;2.20;37.86;102343.72;5069473;28;20224;-72
2022/03/11 10:14:05;;;;;;;16.23;7.40;;;;;;;2.21;39.53;102319.75;5069939;28;20209;-72
2022/03/11 10:16:32;;;;;;;12.73;7.53;;;;;;;2.27;38.01;102326.00;5074060;28;20205;-72
2022/03/11 10:19:00;;;;;;;12.67;7.40;;;;;;;2.46;37.51;102322.38;5042895;28;20779;-72
2022/03/11 10:21:32;;;;;;;14.17;7.30;;;;;;;2.55;37.62;102323.50;5068843;28;20575;-72
2022/03/11 10:24:00;;;;;;;11.43;6.70;;;;;;;2.63;38.01;102324.63;5068258;28;20194;-72
2022/03/11 10:26:36;;;;;;;13.50;6.70;;;;;;;2.72;37.54;102322.34;5069984;28;20256;-72
2022/03/11 10:29:04;;;;;;;15.10;7.53;;;;;;;2.81;38.13;102314.97;5069236;28;20222;-72
2022/03/11 10:31:31;;;;;;;13.97;7.17;;;;;;;2.90;37.99;102324.66;5069414;28;20227;-72
2022/03/11 10:34:15;;;;;;;12.63;7.37;;;;;;;2.81;38.30;102317.53;5069060;28;20205;-72
2022/03/11 10:36:53;;;;;;;12.20;6.70;;;;;;;2.90;36.92;102322.06;5069278;28;20225;-72
2022/03/11 10:39:22;;;;;;;14.30;8.30;;;;;;;2.95;38.20;102315.38;5070141;28;20194;-72
2022/03/11 10:41:50;;;;;;;11.00;6.87;;;;;;;3.11;37.35;102316.75;5075979;28;20194;-72
2022/03/11 10:44:25;;;;;;;12.63;7.70;;;;;;;3.09;36.91;102320.09;5071088;28;20195;-72
2022/03/11 10:46:52;;;;;;;15.00;7.60;;;;;;;3.18;37.85;102313.56;5070273;28;20237;-72
2022/03/11 10:49:31;;;;;;;15.43;7.47;;;;;;;3.28;37.39;102313.84;5067645;28;20664;-72
2022/03/11 10:51:59;;;;;;;13.20;7.53;;;;;;;3.42;37.42;102315.13;5066713;28;20241;-72
2022/03/11 10:54:27;;;;;;;12.40;7.23;;;;;;;3.54;37.11;102309.47;5069079;28;20194;-72
2022/03/11 10:57:10;;;;;;;12.80;7.70;;;;;;;3.65;36.79;102313.22;5063871;28;20224;-72
2022/03/11 10:59:37;;;;;;;12.20;7.20;;;;;;;3.69;35.75;102315.06;5067954;28;20377;-72
2022/03/11 11:02:04;;;;;;;13.70;7.30;;;;;;;3.83;36.06;102306.84;5078769;28;20214;-72
2022/03/11 11:04:31;;;;;;;11.77;6.60;;;;;;;3.91;35.35;102302.78;5067304;28;20252;-72
2022/03/11 11:06:57;;;;;;;10.97;6.80;;;;;;;3.96;35.88;102304.66;5066124;28;20190;-72
2022/03/11 11:09:26;;;;;;;14.23;6.90;;;;;;;4.02;34.91;102310.84;5067801;28;20202;-72
2022/03/11 11:11:53;;;;;;;9.67;6.20;;;;;;;3.92;35.32;102301.94;5069431;28;20203;-73
2022/03/11 11:14:22;;;;;;;12.40;6.80;;;;;;;3.94;35.54;102301.16;5056047;28;20198;-72
2022/03/11 11:16:50;;;;;;;13.13;7.53;;;;;;;4.09;35.32;102286.94;5065687;28;20191;-72
2022/03/11 11:19:18;;;;;;;13.07;7.27;;;;;;;4.17;34.98;102288.03;5065797;28;20199;-72